createdAt,value
2018-09-28T00:00:54.997Z,10.88
2018-09-28T00:03:29.632Z,10.84
2018-09-28T00:06:04.148Z,10.81
2018-09-28T00:08:38.636Z,10.79
2018-09-28T00:11:13.400Z,10.77
2018-09-28T00:13:47.925Z,10.76
2018-09-28T00:16:22.605Z,10.73
2018-09-28T00:18:57.149Z,10.71
2018-09-28T00:21:31.608Z,10.71
2018-09-28T00:24:08.228Z,10.68
2018-09-28T00:26:42.812Z,10.65
2018-09-28T00:29:17.594Z,10.55
2018-09-28T00:31:52.267Z,10.49
2018-09-28T00:34:26.805Z,10.50
2018-09-28T00:37:01.909Z,10.44
2018-09-28T00:39:36.429Z,10.45
2018-09-28T00:42:10.922Z,10.40
2018-09-28T00:44:45.313Z,10.37
2018-09-28T00:47:19.745Z,10.31
2018-09-28T00:49:54.728Z,10.25
2018-09-28T00:52:29.304Z,10.16
2018-09-28T00:55:04.181Z,10.11
2018-09-28T00:57:38.616Z,10.07
2018-09-28T01:00:13.152Z,10.04
2018-09-28T01:02:48.026Z,10.00
2018-09-28T01:05:22.625Z,9.99
2018-09-28T01:07:57.217Z,10.00
2018-09-28T01:10:32.060Z,10.00
2018-09-28T01:13:06.533Z,9.96
2018-09-28T01:15:40.996Z,9.92
2018-09-28T01:18:15.534Z,9.95
2018-09-28T01:20:49.996Z,10.04
2018-09-28T01:23:24.416Z,10.10
2018-09-28T01:25:58.992Z,10.04
2018-09-28T01:28:38.383Z,10.03
2018-09-28T01:31:20.145Z,10.06
2018-09-28T01:34:00.957Z,9.96
2018-09-28T01:36:35.493Z,9.88
2018-09-28T01:39:10.653Z,9.81
2018-09-28T01:41:45.021Z,9.70
2018-09-28T01:44:26.423Z,9.65
2018-09-28T01:47:20.540Z,9.59
2018-09-28T01:52:54.852Z,9.45
2018-09-28T01:58:30.297Z,9.44
2018-09-28T02:01:04.832Z,9.46
2018-09-28T02:03:39.313Z,9.50
2018-09-28T02:06:13.972Z,9.52
2018-09-28T02:08:52.014Z,9.50
2018-09-28T02:11:30.865Z,9.44
2018-09-28T02:14:12.168Z,9.33
2018-09-28T02:16:47.062Z,9.26
2018-09-28T02:19:21.649Z,9.28
2018-09-28T02:21:56.652Z,9.33
2018-09-28T02:24:31.143Z,9.30
2018-09-28T02:27:05.581Z,9.22
2018-09-28T02:29:40.224Z,9.19
2018-09-28T02:32:14.849Z,9.22
2018-09-28T02:34:49.789Z,9.18
2018-09-28T02:37:24.316Z,9.17
2018-09-28T02:39:58.771Z,9.17
2018-09-28T02:42:33.369Z,9.20
2018-09-28T02:45:07.980Z,9.29
2018-09-28T02:47:42.698Z,9.27
2018-09-28T02:50:17.109Z,9.20
2018-09-28T02:52:52.094Z,9.19
2018-09-28T02:55:26.840Z,9.25
2018-09-28T02:58:01.497Z,9.22
2018-09-28T03:00:35.969Z,9.17
2018-09-28T03:03:10.817Z,9.11
2018-09-28T03:05:45.372Z,9.08
2018-09-28T03:08:19.833Z,9.12
2018-09-28T03:10:54.377Z,9.15
2018-09-28T03:13:28.940Z,9.26
2018-09-28T03:16:03.865Z,9.24
2018-09-28T03:18:38.396Z,9.21
2018-09-28T03:21:12.881Z,9.16
2018-09-28T03:23:47.878Z,9.17
2018-09-28T03:26:22.545Z,9.13
2018-09-28T03:28:57.081Z,9.15
2018-09-28T03:31:31.642Z,9.21
2018-09-28T03:34:06.478Z,9.25
2018-09-28T03:36:40.959Z,9.27
2018-09-28T03:39:15.717Z,9.15
2018-09-28T03:41:50.474Z,9.10
2018-09-28T03:44:25.206Z,8.97
2018-09-28T03:46:59.838Z,8.95
2018-09-28T03:49:34.437Z,8.98
2018-09-28T03:52:09.091Z,8.96
2018-09-28T03:54:43.534Z,8.90
2018-09-28T03:57:17.961Z,8.81
2018-09-28T03:59:52.690Z,8.75
2018-09-28T04:02:27.145Z,8.75
2018-09-28T04:05:01.648Z,8.75
2018-09-28T04:07:36.501Z,8.71
2018-09-28T04:10:10.893Z,8.73
2018-09-28T04:12:45.420Z,8.74
2018-09-28T04:15:19.968Z,8.72
2018-09-28T04:17:54.371Z,8.75
2018-09-28T04:20:28.848Z,8.77
2018-09-28T04:23:03.270Z,8.75
2018-09-28T04:25:37.790Z,8.77
2018-09-28T04:28:12.238Z,8.79
2018-09-28T04:30:46.847Z,8.82
2018-09-28T04:33:21.273Z,8.90
2018-09-28T04:35:55.910Z,8.92
2018-09-28T04:38:30.609Z,8.94
2018-09-28T04:41:05.104Z,8.95
2018-09-28T04:43:39.956Z,8.97
2018-09-28T04:46:14.690Z,8.99
2018-09-28T04:48:49.296Z,8.99
2018-09-28T04:51:23.998Z,9.00
2018-09-28T04:53:58.640Z,9.04
2018-09-28T04:56:55.543Z,9.08
2018-09-28T04:59:30.148Z,9.07
2018-09-28T05:02:04.772Z,9.06
2018-09-28T05:04:39.225Z,9.05
2018-09-28T05:07:17.290Z,9.03
2018-09-28T05:09:52.457Z,9.05
2018-09-28T05:12:27.104Z,9.10
2018-09-28T05:15:01.609Z,9.11
2018-09-28T05:17:36.333Z,9.12
2018-09-28T05:20:10.725Z,9.11
2018-09-28T05:22:45.939Z,9.21
2018-09-28T05:25:20.422Z,9.30
2018-09-28T05:27:55.003Z,9.49
2018-09-28T05:30:29.504Z,9.67
2018-09-28T05:33:04.464Z,9.86
2018-09-28T05:35:38.861Z,9.99
2018-09-28T05:38:13.329Z,10.18
2018-09-28T05:40:47.917Z,10.35
2018-09-28T05:43:22.345Z,10.44
2018-09-28T05:45:56.818Z,10.51
2018-09-28T05:48:31.298Z,10.58
2018-09-28T05:51:06.218Z,10.67
2018-09-28T05:53:41.099Z,10.72
2018-09-28T05:56:15.436Z,10.79
2018-09-28T05:58:55.529Z,10.79
2018-09-28T06:01:35.474Z,10.86
2018-09-28T06:04:27.380Z,10.77
2018-09-28T06:07:01.859Z,10.92
2018-09-28T06:09:36.536Z,10.94
2018-09-28T06:12:10.984Z,11.00
2018-09-28T06:14:45.453Z,11.01
2018-09-28T06:17:19.993Z,11.01
2018-09-28T06:19:54.740Z,11.10
2018-09-28T06:22:29.257Z,11.11
2018-09-28T06:25:03.804Z,11.08
2018-09-28T06:27:38.228Z,11.05
2018-09-28T06:30:12.682Z,11.09
2018-09-28T06:32:47.129Z,11.12
2018-09-28T06:35:21.359Z,11.13
2018-09-28T06:37:56.052Z,11.15
2018-09-28T06:40:30.556Z,11.11
2018-09-28T06:43:04.871Z,11.10
2018-09-28T06:45:39.359Z,11.14
2018-09-28T06:48:13.737Z,11.13
2018-09-28T06:50:48.134Z,11.02
2018-09-28T06:56:21.528Z,10.99
2018-09-28T06:58:56.128Z,11.09
2018-09-28T07:01:30.537Z,11.13
2018-09-28T07:04:04.980Z,11.16
2018-09-28T07:06:39.215Z,11.23
2018-09-28T07:09:13.814Z,11.29
2018-09-28T07:11:48.099Z,11.24
2018-09-28T07:20:20.015Z,11.21
2018-09-28T07:22:54.386Z,11.20
2018-09-28T07:25:28.780Z,11.25
2018-09-28T07:28:03.233Z,11.27
2018-09-28T07:30:37.686Z,11.31
2018-09-28T07:33:12.442Z,11.30
2018-09-28T07:35:46.885Z,11.32
2018-09-28T07:38:21.495Z,11.30
2018-09-28T07:40:55.731Z,11.36
2018-09-28T07:43:30.306Z,11.44
2018-09-28T07:46:04.713Z,11.46
2018-09-28T07:48:39.186Z,11.45
2018-09-28T07:51:13.907Z,11.47
2018-09-28T07:53:48.195Z,11.51
2018-09-28T07:56:22.599Z,11.47
2018-09-28T07:58:57.064Z,11.45
2018-09-28T08:01:31.508Z,11.40
2018-09-28T08:04:06.236Z,11.49
2018-09-28T08:06:41.523Z,11.55
2018-09-28T08:09:15.913Z,11.60
2018-09-28T08:11:50.306Z,11.57
2018-09-28T08:14:24.738Z,11.55
2018-09-28T08:16:59.181Z,11.60
2018-09-28T08:19:33.567Z,11.60
2018-09-28T08:22:08.149Z,11.51
2018-09-28T08:24:42.409Z,11.62
2018-09-28T08:27:16.764Z,11.59
2018-09-28T08:29:51.469Z,11.60
2018-09-28T08:32:25.900Z,11.61
2018-09-28T08:35:00.352Z,11.64
2018-09-28T08:37:34.644Z,11.63
2018-09-28T08:40:09.060Z,11.55
2018-09-28T08:42:43.759Z,11.57
2018-09-28T08:45:18.040Z,11.66
2018-09-28T08:47:52.482Z,11.75
2018-09-28T08:50:26.751Z,11.69
2018-09-28T08:53:01.164Z,11.80
2018-09-28T08:55:35.654Z,11.78
2018-09-28T08:58:10.077Z,11.79
2018-09-28T09:00:44.968Z,11.81
2018-09-28T09:03:19.397Z,11.90
2018-09-28T09:05:53.909Z,12.02
2018-09-28T09:08:28.551Z,12.01
2018-09-28T09:11:03.400Z,12.08
2018-09-28T09:13:38.112Z,12.12
2018-09-28T09:16:12.391Z,12.34
2018-09-28T09:18:46.783Z,12.36
2018-09-28T09:21:21.223Z,12.32
2018-09-28T09:23:55.590Z,12.27
2018-09-28T09:26:30.257Z,12.46
2018-09-28T09:29:04.879Z,12.43
2018-09-28T09:31:39.347Z,12.44
2018-09-28T09:34:14.100Z,12.20
2018-09-28T09:36:48.588Z,12.33
2018-09-28T09:39:22.864Z,12.28
2018-09-28T09:41:57.144Z,12.24
2018-09-28T09:44:31.516Z,12.21
2018-09-28T09:47:05.948Z,12.21
2018-09-28T09:49:40.664Z,12.14
2018-09-28T09:52:15.113Z,12.08
2018-09-28T09:54:49.677Z,12.10
2018-09-28T09:57:24.236Z,12.02
2018-09-28T09:59:58.813Z,11.93
2018-09-28T10:02:38.686Z,11.93
2018-09-28T10:05:13.369Z,11.93
2018-09-28T10:07:48.119Z,12.01
2018-09-28T10:10:22.746Z,12.02
2018-09-28T10:12:57.250Z,11.93
2018-09-28T10:15:32.101Z,11.93
2018-09-28T10:18:06.695Z,11.92
2018-09-28T10:20:41.503Z,11.97
2018-09-28T10:23:16.147Z,11.78
2018-09-28T10:25:50.735Z,11.88
2018-09-28T10:28:25.371Z,12.01
2018-09-28T10:31:00.054Z,12.05
2018-09-28T10:33:34.666Z,12.11
2018-09-28T10:36:09.084Z,12.22
2018-09-28T10:38:44.081Z,12.35
2018-09-28T10:41:18.642Z,12.45
2018-09-28T10:43:52.986Z,12.40
2018-09-28T10:46:27.518Z,12.52
2018-09-28T10:49:02.010Z,12.49
2018-09-28T10:51:36.790Z,12.40
2018-09-28T10:54:11.350Z,12.42
2018-09-28T10:56:45.635Z,12.49
2018-09-28T10:59:19.924Z,12.38
2018-09-28T11:01:54.411Z,12.45
2018-09-28T11:04:28.927Z,12.35
2018-09-28T11:07:03.216Z,12.13
2018-09-28T11:09:37.615Z,12.18
2018-09-28T11:12:11.952Z,12.27
2018-09-28T11:14:46.597Z,12.20
2018-09-28T11:17:20.900Z,12.27
2018-09-28T11:19:55.709Z,12.52
2018-09-28T11:22:30.213Z,12.60
2018-09-28T11:25:04.816Z,12.41
2018-09-28T11:27:39.254Z,12.50
2018-09-28T11:30:13.774Z,12.44
2018-09-28T11:32:48.336Z,12.57
2018-09-28T11:35:22.910Z,12.58
2018-09-28T11:37:57.608Z,12.77
2018-09-28T11:40:32.342Z,12.87
2018-09-28T11:43:07.013Z,12.91
2018-09-28T11:45:41.532Z,12.93
2018-09-28T11:48:16.901Z,12.87
2018-09-28T11:50:51.748Z,12.86
2018-09-28T11:53:26.409Z,12.96
2018-09-28T11:56:00.895Z,12.84
2018-09-28T11:58:35.468Z,12.84
2018-09-28T12:01:10.119Z,12.92
2018-09-28T12:03:44.670Z,12.89
2018-09-28T12:06:19.270Z,12.69
2018-09-28T12:08:53.810Z,12.70
2018-09-28T12:11:28.321Z,12.66
2018-09-28T12:14:03.459Z,12.73
2018-09-28T12:16:38.117Z,12.79
2018-09-28T12:19:12.848Z,13.05
2018-09-28T12:21:47.586Z,13.19
2018-09-28T12:24:22.346Z,12.96
2018-09-28T12:26:57.282Z,13.10
2018-09-28T12:29:32.320Z,12.86
2018-09-28T12:32:06.836Z,13.00
2018-09-28T12:34:41.461Z,12.98
2018-09-28T12:37:16.034Z,13.03
2018-09-28T12:39:50.481Z,13.01
2018-09-28T12:42:25.218Z,13.40
2018-09-28T12:45:00.075Z,13.74
2018-09-28T12:47:34.412Z,13.71
2018-09-28T12:50:08.901Z,13.88
2018-09-28T12:52:43.437Z,13.74
2018-09-28T12:55:18.119Z,13.76
2018-09-28T12:57:53.091Z,13.35
2018-09-28T13:00:27.916Z,13.42
2018-09-28T13:03:02.524Z,13.36
2018-09-28T13:05:37.190Z,13.52
2018-09-28T13:08:11.930Z,13.58
2018-09-28T13:10:47.588Z,13.24
2018-09-28T13:13:22.136Z,13.40
2018-09-28T13:15:57.028Z,13.51
2018-09-28T13:18:31.558Z,13.44
2018-09-28T13:21:05.991Z,13.34
2018-09-28T13:23:40.781Z,13.22
2018-09-28T13:26:15.406Z,13.25
2018-09-28T13:28:50.025Z,13.28
2018-09-28T13:31:25.165Z,13.58
2018-09-28T13:33:59.736Z,13.67
2018-09-28T13:36:34.443Z,14.02
2018-09-28T13:39:09.559Z,14.17
2018-09-28T13:41:44.150Z,14.19
2018-09-28T13:44:18.895Z,14.14
2018-09-28T13:46:53.661Z,14.33
2018-09-28T13:49:28.121Z,14.51
2018-09-28T13:52:02.910Z,14.46
2018-09-28T13:54:37.736Z,14.51
2018-09-28T13:57:12.236Z,14.42
2018-09-28T13:59:46.784Z,14.38
2018-09-28T14:02:21.385Z,14.37
2018-09-28T14:04:55.917Z,14.43
2018-09-28T14:07:30.599Z,14.48
2018-09-28T14:10:05.401Z,14.61
2018-09-28T14:12:39.973Z,14.79
2018-09-28T14:15:14.421Z,14.95
2018-09-28T14:17:48.932Z,15.06
2018-09-28T14:20:23.490Z,14.65
2018-09-28T14:22:57.964Z,15.02
2018-09-28T14:25:32.556Z,14.94
2018-09-28T14:28:07.291Z,15.04
2018-09-28T14:30:41.797Z,15.27
2018-09-28T14:33:16.240Z,15.32
2018-09-28T14:35:51.123Z,14.95
2018-09-28T14:38:25.516Z,14.85
2018-09-28T14:41:00.336Z,15.05
2018-09-28T14:43:34.939Z,14.97
2018-09-28T14:46:09.650Z,15.20
2018-09-28T14:48:44.233Z,15.18
2018-09-28T14:51:18.588Z,15.46
2018-09-28T14:53:53.288Z,15.08
2018-09-28T14:56:27.992Z,14.77
2018-09-28T14:59:02.414Z,14.80
2018-09-28T15:01:36.953Z,14.73
2018-09-28T15:04:11.499Z,14.75
2018-09-28T15:06:46.126Z,14.72
2018-09-28T15:09:20.833Z,14.74
2018-09-28T15:11:55.388Z,14.66
2018-09-28T15:14:30.230Z,14.72
2018-09-28T15:17:04.725Z,14.88
2018-09-28T15:19:39.232Z,14.78
2018-09-28T15:22:13.753Z,14.80
2018-09-28T15:24:48.457Z,14.61
2018-09-28T15:27:23.008Z,14.48
2018-09-28T15:30:08.894Z,14.37
2018-09-28T15:32:47.532Z,14.36
2018-09-28T15:35:25.589Z,14.24
2018-09-28T15:38:00.021Z,14.14
2018-09-28T15:40:34.722Z,14.11
2018-09-28T15:43:09.314Z,14.08
2018-09-28T15:45:43.896Z,14.13
2018-09-28T15:48:18.682Z,14.20
2018-09-28T15:50:53.102Z,14.30
2018-09-28T15:53:27.652Z,14.30
2018-09-28T15:56:02.096Z,14.32
2018-09-28T15:58:37.050Z,14.35
2018-09-28T16:01:11.649Z,14.32
2018-09-28T16:03:46.138Z,14.16
2018-09-28T16:06:21.024Z,14.13
2018-09-28T16:08:55.946Z,13.88
2018-09-28T16:11:30.782Z,13.75
2018-09-28T16:14:05.520Z,13.75
2018-09-28T16:16:40.275Z,13.58
2018-09-28T16:19:14.992Z,13.51
2018-09-28T16:21:49.859Z,13.60
2018-09-28T16:24:24.410Z,13.71
2018-09-28T16:26:59.116Z,13.96
2018-09-28T16:29:34.080Z,14.28
2018-09-28T16:32:08.694Z,14.17
2018-09-28T16:34:43.420Z,13.80
2018-09-28T16:37:17.937Z,13.60
2018-09-28T16:39:52.592Z,13.34
2018-09-28T16:42:27.122Z,13.21
2018-09-28T16:45:01.748Z,13.06
2018-09-28T16:47:36.399Z,12.88
2018-09-28T16:50:10.931Z,12.77
2018-09-28T16:52:45.388Z,12.66
2018-09-28T16:55:20.105Z,12.56
2018-09-28T16:57:54.650Z,12.42
2018-09-28T17:00:29.320Z,12.31
2018-09-28T17:03:03.900Z,12.26
2018-09-28T17:05:38.448Z,12.16
2018-09-28T17:08:12.915Z,12.10
2018-09-28T17:10:47.572Z,12.02
2018-09-28T17:13:22.252Z,11.98
2018-09-28T17:15:57.052Z,11.84
2018-09-28T17:18:31.776Z,11.78
2018-09-28T17:21:06.129Z,11.65
2018-09-28T17:23:40.617Z,11.55
2018-09-28T17:26:15.121Z,11.53
2018-09-28T17:28:49.692Z,11.53
2018-09-28T17:31:24.480Z,11.53
2018-09-28T17:33:59.137Z,11.48
2018-09-28T17:36:33.767Z,11.42
2018-09-28T17:39:10.489Z,11.35
2018-09-28T17:41:45.044Z,11.29
2018-09-28T17:44:19.541Z,11.19
2018-09-28T17:46:54.002Z,11.10
2018-09-28T17:49:28.456Z,11.02
2018-09-28T17:52:02.993Z,10.93
2018-09-28T17:54:38.183Z,10.93
2018-09-28T17:57:12.591Z,10.89
2018-09-28T17:59:47.107Z,10.82
2018-09-28T18:02:21.518Z,10.82
2018-09-28T18:04:56.084Z,10.81
2018-09-28T18:07:30.773Z,10.75
2018-09-28T18:10:05.106Z,10.68
2018-09-28T18:12:39.644Z,10.57
2018-09-28T18:15:14.246Z,10.62
2018-09-28T18:17:48.719Z,10.64
2018-09-28T18:20:23.270Z,10.70
2018-09-28T18:22:57.675Z,10.64
2018-09-28T18:25:32.473Z,10.61
2018-09-28T18:28:07.139Z,10.62
2018-09-28T18:30:41.779Z,10.64
2018-09-28T18:33:16.188Z,10.59
2018-09-28T18:35:50.777Z,10.57
2018-09-28T18:38:25.222Z,10.53
2018-09-28T18:40:59.816Z,10.55
2018-09-28T18:43:34.639Z,10.57
2018-09-28T18:46:09.340Z,10.53
2018-09-28T18:48:43.933Z,10.49
2018-09-28T18:51:18.434Z,10.49
2018-09-28T18:53:53.001Z,10.40
2018-09-28T18:56:27.749Z,10.36
2018-09-28T18:59:02.344Z,10.31
2018-09-28T19:01:37.309Z,10.32
2018-09-28T19:04:15.585Z,10.31
2018-09-28T19:06:51.088Z,10.24
2018-09-28T19:09:25.856Z,10.20
2018-09-28T19:12:07.886Z,10.14
2018-09-28T19:14:44.476Z,10.14
2018-09-28T19:17:19.010Z,10.12
2018-09-28T19:19:53.500Z,10.16
2018-09-28T19:22:35.433Z,10.21
2018-09-28T19:25:14.872Z,10.15
2018-09-28T19:27:49.648Z,10.13
2018-09-28T19:30:24.194Z,10.25
2018-09-28T19:32:58.674Z,10.20
2018-09-28T19:35:33.574Z,10.17
2018-09-28T19:38:08.075Z,10.11
2018-09-28T19:40:42.577Z,10.07
2018-09-28T19:43:17.200Z,9.95
2018-09-28T19:45:51.672Z,9.99
2018-09-28T19:48:26.569Z,9.94
2018-09-28T19:51:01.497Z,9.89
2018-09-28T19:53:36.015Z,9.80
2018-09-28T19:56:10.556Z,9.86
2018-09-28T19:58:44.912Z,9.82
2018-09-28T20:01:19.279Z,9.84
2018-09-28T20:03:53.780Z,9.82
2018-09-28T20:06:28.390Z,9.73
2018-09-28T20:09:02.828Z,9.68
2018-09-28T20:11:37.337Z,9.69
2018-09-28T20:14:11.779Z,9.69
2018-09-28T20:16:46.356Z,9.64
2018-09-28T20:19:21.387Z,9.64
2018-09-28T20:21:56.137Z,9.60
2018-09-28T20:24:30.996Z,9.54
2018-09-28T20:27:05.632Z,9.42
2018-09-28T20:29:40.037Z,9.37
2018-09-28T20:32:14.844Z,9.39
2018-09-28T20:34:49.325Z,9.34
2018-09-28T20:37:23.817Z,9.27
2018-09-28T20:39:58.250Z,9.22
2018-09-28T20:42:32.845Z,9.20
2018-09-28T20:45:07.359Z,9.12
2018-09-28T20:47:41.802Z,9.05
2018-09-28T20:50:16.801Z,8.98
2018-09-28T20:52:51.415Z,8.94
2018-09-28T20:55:26.027Z,9.05
2018-09-28T20:58:00.624Z,8.98
2018-09-28T21:00:35.103Z,9.05
2018-09-28T21:03:09.592Z,8.97
2018-09-28T21:05:44.208Z,8.91
2018-09-28T21:08:18.713Z,8.88
2018-09-28T21:10:53.096Z,8.88
2018-09-28T21:13:27.592Z,8.92
2018-09-28T21:16:02.097Z,8.87
2018-09-28T21:18:36.701Z,8.81
2018-09-28T21:21:11.278Z,8.79
2018-09-28T21:23:45.882Z,8.74
2018-09-28T21:26:20.408Z,8.74
2018-09-28T21:28:54.917Z,8.66
2018-09-28T21:31:29.470Z,8.67
2018-09-28T21:34:04.073Z,8.63
2018-09-28T21:36:38.657Z,8.68
2018-09-28T21:39:13.174Z,8.67
2018-09-28T21:41:47.639Z,8.64
2018-09-28T21:44:22.133Z,8.64
2018-09-28T21:49:57.024Z,8.60
2018-09-28T21:52:31.609Z,8.56
2018-09-28T21:55:06.324Z,8.54
2018-09-28T21:57:40.842Z,8.52
2018-09-28T22:00:15.381Z,8.49
2018-09-28T22:02:50.156Z,8.47
2018-09-28T22:05:24.757Z,8.51
2018-09-28T22:07:59.537Z,8.47
2018-09-28T22:10:34.609Z,8.47
2018-09-28T22:13:09.088Z,8.50
2018-09-28T22:15:43.484Z,8.45
2018-09-28T22:18:17.969Z,8.43
2018-09-28T22:20:52.572Z,8.32
2018-09-28T22:23:27.136Z,8.34
2018-09-28T22:26:01.824Z,8.34
2018-09-28T22:28:36.340Z,8.24
2018-09-28T22:31:11.045Z,8.22
2018-09-28T22:33:45.689Z,8.19
2018-09-28T22:36:20.434Z,8.15
2018-09-28T22:38:54.940Z,8.14
2018-09-28T22:41:29.529Z,8.10
2018-09-28T22:44:04.268Z,8.02
2018-09-28T22:46:39.149Z,8.00
2018-09-28T22:49:13.744Z,8.05
2018-09-28T22:51:48.173Z,8.05
2018-09-28T22:54:26.241Z,8.09
2018-09-28T22:57:00.653Z,8.08
2018-09-28T22:59:35.446Z,8.08
2018-09-28T23:02:09.993Z,8.05
2018-09-28T23:04:44.671Z,7.94
2018-09-28T23:07:19.329Z,7.98
2018-09-28T23:09:53.684Z,7.97
2018-09-28T23:12:28.112Z,7.95
2018-09-28T23:15:03.017Z,7.92
2018-09-28T23:17:37.576Z,7.86
2018-09-28T23:20:11.992Z,7.79
2018-09-28T23:22:46.302Z,7.71
2018-09-28T23:25:21.225Z,7.64
2018-09-28T23:27:55.780Z,7.58
2018-09-28T23:30:30.389Z,7.46
2018-09-28T23:33:05.113Z,7.45
2018-09-28T23:35:39.642Z,7.41
2018-09-28T23:38:14.373Z,7.37
2018-09-28T23:40:49.050Z,7.34
2018-09-28T23:43:23.602Z,7.33
2018-09-28T23:45:58.148Z,7.32
2018-09-28T23:48:32.704Z,7.39
2018-09-28T23:51:07.189Z,7.33
2018-09-28T23:53:41.979Z,7.33
2018-09-28T23:56:16.347Z,7.41
2018-09-28T23:58:50.688Z,7.47
